Time;durP1;ratioP1;P1;durP2;ratioP2;P2;SDS_P1;SDS_P2;PMS_P1;PMS_P2;Temp;Humidity;BMP_temperature;BMP_pressure;BME280_temperature;BME280_humidity;BME280_pressure;Samples;Min_cycle;Max_cycle;Signal;HPM_P1;HPM_P2
2023/03/04 00:02:19;;;;;;;85.00;29.13;;;;;;;;;;6153442;23;20223;-90
2023/03/04 00:05:25;;;;;;;75.40;27.30;;;;;;;;;;6156786;23;20213;-91
2023/03/04 00:08:30;;;;;;;82.80;29.97;;;;;;;;;;6172749;23;20152;-94
2023/03/04 00:11:36;;;;;;;80.70;29.33;;;;;;;;;;6172822;23;20232;-91
2023/03/04 00:14:48;;;;;;;90.10;30.80;;;;;;;;;;6174249;23;20157;-91
2023/03/04 00:17:54;;;;;;;89.63;31.17;;;;;;;;;;6172155;23;20195;-91
2023/03/04 00:21:00;;;;;;;89.70;30.53;;;;;;;;;;6155130;23;20214;-94
2023/03/04 00:24:06;;;;;;;80.00;29.73;;;;;;;;;;6156825;23;20234;-92
2023/03/04 00:27:12;;;;;;;80.00;28.03;;;;;;;;;;6156502;23;20156;-90
2023/03/04 00:30:19;;;;;;;79.97;28.20;;;;;;;;;;6157220;23;20181;-92
2023/03/04 00:33:25;;;;;;;87.57;30.17;;;;;;;;;;6156575;23;20241;-91
2023/03/04 00:36:30;;;;;;;84.40;29.87;;;;;;;;;;6157309;23;20177;-91
2023/03/04 00:39:36;;;;;;;79.93;30.13;;;;;;;;;;6176185;23;20177;-91
2023/03/04 00:42:41;;;;;;;86.47;30.40;;;;;;;;;;6172693;23;20169;-91
2023/03/04 00:45:49;;;;;;;110.77;38.73;;;;;;;;;;6173267;23;20173;-92
2023/03/04 00:48:54;;;;;;;102.67;38.80;;;;;;;;;;6174760;23;20157;-91
2023/03/04 00:52:00;;;;;;;90.17;33.17;;;;;;;;;;6171796;23;20161;-91
2023/03/04 00:55:06;;;;;;;83.47;30.53;;;;;;;;;;6172470;23;20174;-92
2023/03/04 00:58:12;;;;;;;81.27;29.83;;;;;;;;;;6155536;23;20196;-94
2023/03/04 01:01:20;;;;;;;78.67;29.47;;;;;;;;;;6158238;23;20227;-92
2023/03/04 01:04:26;;;;;;;81.83;29.57;;;;;;;;;;6175423;23;20185;-91
2023/03/04 01:07:32;;;;;;;85.70;29.70;;;;;;;;;;6157765;23;20226;-91
2023/03/04 01:10:38;;;;;;;88.53;30.23;;;;;;;;;;6162348;23;20169;-92
2023/03/04 01:13:43;;;;;;;87.40;30.13;;;;;;;;;;6175081;23;20227;-91
2023/03/04 01:16:50;;;;;;;84.43;29.67;;;;;;;;;;6156433;23;20221;-92
2023/03/04 01:19:59;;;;;;;80.67;29.77;;;;;;;;;;6173150;23;20173;-92
2023/03/04 01:23:05;;;;;;;85.70;30.63;;;;;;;;;;6173424;23;20172;-91
2023/03/04 01:26:10;;;;;;;79.57;29.47;;;;;;;;;;6175907;23;20189;-90
2023/03/04 01:29:16;;;;;;;75.80;28.73;;;;;;;;;;6158274;23;20216;-91
2023/03/04 01:32:23;;;;;;;80.20;28.63;;;;;;;;;;6175948;23;20160;-93
2023/03/04 01:35:28;;;;;;;88.60;28.80;;;;;;;;;;6173641;23;20180;-91
2023/03/04 01:38:35;;;;;;;81.93;27.73;;;;;;;;;;6172949;23;20199;-90
2023/03/04 01:41:41;;;;;;;82.27;28.67;;;;;;;;;;6173177;23;20167;-89
2023/03/04 01:44:46;;;;;;;76.80;27.07;;;;;;;;;;6172836;23;20169;-91
2023/03/04 01:47:53;;;;;;;77.80;27.00;;;;;;;;;;6173686;23;20160;-91
2023/03/04 01:51:01;;;;;;;74.37;27.63;;;;;;;;;;6171966;23;20172;-92
2023/03/04 01:54:06;;;;;;;84.93;28.60;;;;;;;;;;6154318;23;20201;-91
2023/03/04 01:57:17;;;;;;;74.50;25.53;;;;;;;;;;6174022;23;20192;-90
2023/03/04 02:00:24;;;;;;;72.50;26.37;;;;;;;;;;6155069;23;20214;-90
2023/03/04 02:03:32;;;;;;;76.97;27.40;;;;;;;;;;6156344;23;20169;-92
2023/03/04 02:06:38;;;;;;;82.13;27.20;;;;;;;;;;6153167;23;20285;-90
2023/03/04 02:09:43;;;;;;;80.47;26.93;;;;;;;;;;6172166;23;20176;-92
2023/03/04 02:12:52;;;;;;;73.73;25.60;;;;;;;;;;6172170;23;20218;-92
2023/03/04 02:15:57;;;;;;;73.53;25.87;;;;;;;;;;6173242;23;20168;-91
2023/03/04 02:19:08;;;;;;;74.87;27.47;;;;;;;;;;6173852;23;20534;-92
2023/03/04 02:22:12;;;;;;;84.03;29.03;;;;;;;;;;6172945;23;20169;-93
2023/03/04 02:25:19;;;;;;;77.53;26.77;;;;;;;;;;6173729;23;20157;-92
2023/03/04 02:28:26;;;;;;;83.80;28.47;;;;;;;;;;6172633;23;20168;-93
2023/03/04 02:31:32;;;;;;;78.50;27.77;;;;;;;;;;6172631;23;20620;-92
2023/03/04 02:34:38;;;;;;;74.43;28.87;;;;;;;;;;6156365;23;20209;-93
2023/03/04 02:37:43;;;;;;;89.30;29.97;;;;;;;;;;6155291;23;20249;-92
2023/03/04 02:40:51;;;;;;;80.43;28.23;;;;;;;;;;6172355;23;20156;-92
2023/03/04 02:43:59;;;;;;;93.67;30.10;;;;;;;;;;6171819;23;20216;-92
2023/03/04 02:47:06;;;;;;;84.67;28.33;;;;;;;;;;6156019;23;20172;-92
2023/03/04 02:50:12;;;;;;;76.03;27.50;;;;;;;;;;6154886;23;20152;-92
2023/03/04 02:53:17;;;;;;;88.47;29.50;;;;;;;;;;6156001;23;20188;-93
2023/03/04 02:56:22;;;;;;;90.40;27.73;;;;;;;;;;6171466;23;20216;-92
2023/03/04 02:59:29;;;;;;;69.63;26.67;;;;;;;;;;6170794;23;20204;-91
2023/03/04 03:02:34;;;;;;;83.57;29.07;;;;;;;;;;6156038;23;20180;-91
2023/03/04 03:05:39;;;;;;;74.10;27.23;;;;;;;;;;6156325;23;20164;-91
2023/03/04 03:08:45;;;;;;;79.33;28.73;;;;;;;;;;6157389;23;20184;-91
2023/03/04 03:11:52;;;;;;;80.20;28.10;;;;;;;;;;6172756;23;20164;-92
2023/03/04 03:14:59;;;;;;;89.43;31.53;;;;;;;;;;6172030;23;20212;-93
2023/03/04 03:18:05;;;;;;;97.97;31.43;;;;;;;;;;6172050;23;20188;-93
2023/03/04 03:21:10;;;;;;;91.57;31.63;;;;;;;;;;6155650;23;20189;-90
2023/03/04 03:24:15;;;;;;;93.90;33.07;;;;;;;;;;6173595;23;20173;-90
2023/03/04 03:27:20;;;;;;;105.27;34.00;;;;;;;;;;6172581;23;20165;-91
2023/03/04 03:30:26;;;;;;;85.50;31.47;;;;;;;;;;6155582;23;20164;-91
2023/03/04 03:33:32;;;;;;;108.27;32.83;;;;;;;;;;6156045;23;20193;-91
2023/03/04 03:36:38;;;;;;;84.30;30.80;;;;;;;;;;6174009;23;20189;-91
2023/03/04 03:39:43;;;;;;;98.13;31.80;;;;;;;;;;6157667;23;20244;-90
2023/03/04 03:42:48;;;;;;;93.47;33.27;;;;;;;;;;6157739;23;20181;-91
2023/03/04 03:45:55;;;;;;;86.13;30.40;;;;;;;;;;6156182;23;20168;-91
2023/03/04 03:49:00;;;;;;;95.50;33.23;;;;;;;;;;6169881;23;20237;-89
2023/03/04 03:52:07;;;;;;;98.50;33.00;;;;;;;;;;6153182;23;20155;-92
2023/03/04 03:55:12;;;;;;;93.53;32.87;;;;;;;;;;6168905;23;20538;-91
2023/03/04 03:58:17;;;;;;;94.97;32.60;;;;;;;;;;6171447;23;20254;-92
2023/03/04 04:01:24;;;;;;;91.23;32.43;;;;;;;;;;6170119;23;20188;-92
2023/03/04 04:04:29;;;;;;;94.20;32.97;;;;;;;;;;6170776;23;20152;-94
2023/03/04 04:07:34;;;;;;;105.73;36.70;;;;;;;;;;6170817;23;20173;-94
2023/03/04 04:10:39;;;;;;;96.30;32.83;;;;;;;;;;6173017;23;20175;-92
2023/03/04 04:14:04;;;;;;;101.77;32.87;;;;;;;;;;6173291;23;20173;-94
2023/03/04 04:17:12;;;;;;;98.37;32.93;;;;;;;;;;6172340;23;20148;-92
2023/03/04 04:20:18;;;;;;;95.03;31.53;;;;;;;;;;6156329;23;20244;-92
2023/03/04 04:23:23;;;;;;;72.87;27.13;;;;;;;;;;6155469;23;20148;-92
2023/03/04 04:26:29;;;;;;;78.27;27.60;;;;;;;;;;6173208;23;20160;-91
2023/03/04 04:29:34;;;;;;;103.07;35.07;;;;;;;;;;6157234;23;20153;-89
2023/03/04 04:32:40;;;;;;;84.23;29.40;;;;;;;;;;6174010;23;20149;-90
2023/03/04 04:35:46;;;;;;;82.63;28.03;;;;;;;;;;6172596;23;20184;-89
2023/03/04 04:38:52;;;;;;;80.03;27.63;;;;;;;;;;6157846;23;20607;-92
2023/03/04 04:41:57;;;;;;;86.27;29.10;;;;;;;;;;6154632;23;20184;-91
2023/03/04 04:45:02;;;;;;;83.13;28.93;;;;;;;;;;6155597;23;20169;-92
2023/03/04 04:48:09;;;;;;;76.27;27.23;;;;;;;;;;6154230;23;20172;-91
2023/03/04 04:51:15;;;;;;;88.00;29.27;;;;;;;;;;6153884;23;20204;-93
2023/03/04 04:54:20;;;;;;;86.10;28.47;;;;;;;;;;6174460;23;20206;-93
2023/03/04 04:57:25;;;;;;;90.03;30.73;;;;;;;;;;6173810;23;20212;-91
2023/03/04 05:00:31;;;;;;;85.20;30.27;;;;;;;;;;6175154;23;20176;-90
2023/03/04 05:03:38;;;;;;;88.37;29.80;;;;;;;;;;6173358;23;20296;-92
2023/03/04 05:06:44;;;;;;;97.53;30.60;;;;;;;;;;6172495;23;20200;-92
2023/03/04 05:09:49;;;;;;;83.33;28.97;;;;;;;;;;6175142;23;20153;-92
2023/03/04 05:13:01;;;;;;;88.43;30.43;;;;;;;;;;6174834;23;20174;-92
2023/03/04 05:16:06;;;;;;;100.53;29.80;;;;;;;;;;6174655;23;20243;-90
2023/03/04 14:03:22;;;;;;;21.23;8.10;;;;;;;;;;6145722;23;20194;-90
2023/03/04 14:06:28;;;;;;;18.43;8.37;;;;;;;;;;6128553;23;20173;-91
2023/03/04 14:09:35;;;;;;;18.47;8.43;;;;;;;;;;6128154;23;20177;-92
2023/03/04 14:12:42;;;;;;;19.50;8.20;;;;;;;;;;6127016;23;20177;-91
2023/03/04 14:15:54;;;;;;;16.77;6.70;;;;;;;;;;6126274;23;20169;-90
2023/03/04 14:26:49;;;;;;;21.60;8.03;;;;;;;;;;6136925;23;20296;-89
2023/03/04 14:29:58;;;;;;;20.70;8.47;;;;;;;;;;6127765;23;20173;-89
2023/03/04 14:33:07;;;;;;;20.03;8.07;;;;;;;;;;6127507;23;20222;-90
2023/03/04 14:36:18;;;;;;;27.93;9.07;;;;;;;;;;6128179;23;20165;-90
2023/03/04 14:39:26;;;;;;;21.03;8.27;;;;;;;;;;6127158;23;20225;-92
